sensor_id;sensor_type;location;lat;lon;timestamp;P1;durP1;ratioP1;P2;durP2;ratioP2
54683;SDS011;40582;53.100;6.686;2023-04-30T00:01:43;12.77;;;3.38;;
54683;SDS011;40582;53.100;6.686;2023-04-30T00:04:09;10.07;;;2.80;;
54683;SDS011;40582;53.100;6.686;2023-04-30T00:06:35;7.30;;;2.85;;
54683;SDS011;40582;53.100;6.686;2023-04-30T00:09:00;6.20;;;3.20;;
54683;SDS011;40582;53.100;6.686;2023-04-30T00:11:27;10.88;;;3.30;;
54683;SDS011;40582;53.100;6.686;2023-04-30T00:13:53;9.98;;;3.10;;
54683;SDS011;40582;53.100;6.686;2023-04-30T00:16:20;9.50;;;3.15;;
54683;SDS011;40582;53.100;6.686;2023-04-30T00:18:46;8.55;;;3.25;;
54683;SDS011;40582;53.100;6.686;2023-04-30T00:21:12;9.93;;;2.95;;
54683;SDS011;40582;53.100;6.686;2023-04-30T00:23:37;9.25;;;2.88;;
54683;SDS011;40582;53.100;6.686;2023-04-30T00:26:03;13.02;;;3.53;;
54683;SDS011;40582;53.100;6.686;2023-04-30T00:28:29;11.00;;;3.13;;
54683;SDS011;40582;53.100;6.686;2023-04-30T00:30:54;8.65;;;2.80;;
54683;SDS011;40582;53.100;6.686;2023-04-30T00:33:20;9.82;;;2.70;;
54683;SDS011;40582;53.100;6.686;2023-04-30T00:35:46;14.02;;;3.58;;
54683;SDS011;40582;53.100;6.686;2023-04-30T00:38:11;9.15;;;3.03;;
54683;SDS011;40582;53.100;6.686;2023-04-30T00:40:37;9.88;;;3.13;;
54683;SDS011;40582;53.100;6.686;2023-04-30T00:43:05;9.35;;;3.15;;
54683;SDS011;40582;53.100;6.686;2023-04-30T00:45:31;7.57;;;3.08;;
54683;SDS011;40582;53.100;6.686;2023-04-30T00:47:56;9.80;;;3.35;;
54683;SDS011;40582;53.100;6.686;2023-04-30T00:50:22;8.45;;;2.80;;
54683;SDS011;40582;53.100;6.686;2023-04-30T00:52:48;7.32;;;2.95;;
54683;SDS011;40582;53.100;6.686;2023-04-30T00:55:15;11.50;;;2.97;;
54683;SDS011;40582;53.100;6.686;2023-04-30T00:57:41;9.75;;;3.60;;
54683;SDS011;40582;53.100;6.686;2023-04-30T01:00:07;7.70;;;3.10;;
54683;SDS011;40582;53.100;6.686;2023-04-30T01:02:38;9.02;;;2.80;;
54683;SDS011;40582;53.100;6.686;2023-04-30T01:05:04;7.03;;;3.55;;
54683;SDS011;40582;53.100;6.686;2023-04-30T01:07:32;12.98;;;3.58;;
54683;SDS011;40582;53.100;6.686;2023-04-30T01:10:00;5.88;;;3.00;;
54683;SDS011;40582;53.100;6.686;2023-04-30T01:12:40;10.45;;;3.03;;
54683;SDS011;40582;53.100;6.686;2023-04-30T01:18:25;13.88;;;3.28;;
54683;SDS011;40582;53.100;6.686;2023-04-30T01:21:03;5.70;;;3.22;;
54683;SDS011;40582;53.100;6.686;2023-04-30T01:26:15;13.38;;;3.42;;
54683;SDS011;40582;53.100;6.686;2023-04-30T01:28:53;10.57;;;3.33;;
54683;SDS011;40582;53.100;6.686;2023-04-30T01:31:23;9.48;;;3.33;;
54683;SDS011;40582;53.100;6.686;2023-04-30T01:33:52;8.93;;;3.05;;
54683;SDS011;40582;53.100;6.686;2023-04-30T01:39:31;11.02;;;3.13;;
54683;SDS011;40582;53.100;6.686;2023-04-30T01:42:15;6.25;;;2.80;;
54683;SDS011;40582;53.100;6.686;2023-04-30T01:50:37;11.98;;;3.42;;
54683;SDS011;40582;53.100;6.686;2023-04-30T01:53:40;9.20;;;3.17;;
54683;SDS011;40582;53.100;6.686;2023-04-30T01:56:30;11.30;;;2.92;;
54683;SDS011;40582;53.100;6.686;2023-04-30T01:58:56;11.57;;;3.50;;
54683;SDS011;40582;53.100;6.686;2023-04-30T02:01:27;6.05;;;3.13;;
54683;SDS011;40582;53.100;6.686;2023-04-30T02:03:54;10.27;;;3.35;;
54683;SDS011;40582;53.100;6.686;2023-04-30T02:06:21;8.10;;;3.20;;
54683;SDS011;40582;53.100;6.686;2023-04-30T02:08:52;7.28;;;3.05;;
54683;SDS011;40582;53.100;6.686;2023-04-30T02:11:23;12.57;;;3.78;;
54683;SDS011;40582;53.100;6.686;2023-04-30T02:13:49;10.35;;;3.55;;
54683;SDS011;40582;53.100;6.686;2023-04-30T02:16:15;10.07;;;3.35;;
54683;SDS011;40582;53.100;6.686;2023-04-30T02:18:41;9.15;;;3.50;;
54683;SDS011;40582;53.100;6.686;2023-04-30T02:21:06;12.40;;;3.55;;
54683;SDS011;40582;53.100;6.686;2023-04-30T02:23:32;13.15;;;3.55;;
54683;SDS011;40582;53.100;6.686;2023-04-30T02:25:58;9.15;;;2.90;;
54683;SDS011;40582;53.100;6.686;2023-04-30T02:28:23;8.95;;;3.25;;
54683;SDS011;40582;53.100;6.686;2023-04-30T02:30:49;8.45;;;3.35;;
54683;SDS011;40582;53.100;6.686;2023-04-30T02:33:14;9.93;;;3.22;;
54683;SDS011;40582;53.100;6.686;2023-04-30T02:35:40;8.60;;;3.55;;
54683;SDS011;40582;53.100;6.686;2023-04-30T02:38:06;11.25;;;3.60;;
54683;SDS011;40582;53.100;6.686;2023-04-30T02:40:32;13.68;;;3.92;;
54683;SDS011;40582;53.100;6.686;2023-04-30T02:42:58;12.90;;;4.10;;
54683;SDS011;40582;53.100;6.686;2023-04-30T02:45:25;11.38;;;3.38;;
54683;SDS011;40582;53.100;6.686;2023-04-30T02:47:51;11.75;;;3.70;;
54683;SDS011;40582;53.100;6.686;2023-04-30T02:50:16;11.23;;;4.13;;
54683;SDS011;40582;53.100;6.686;2023-04-30T02:52:43;11.45;;;3.08;;
54683;SDS011;40582;53.100;6.686;2023-04-30T02:55:10;10.20;;;3.70;;
54683;SDS011;40582;53.100;6.686;2023-04-30T02:57:35;10.57;;;3.38;;
54683;SDS011;40582;53.100;6.686;2023-04-30T03:00:02;10.73;;;3.75;;
54683;SDS011;40582;53.100;6.686;2023-04-30T03:02:28;8.77;;;3.78;;
54683;SDS011;40582;53.100;6.686;2023-04-30T03:04:53;11.02;;;4.10;;
54683;SDS011;40582;53.100;6.686;2023-04-30T03:07:19;5.40;;;3.35;;
54683;SDS011;40582;53.100;6.686;2023-04-30T03:09:44;8.63;;;3.50;;
54683;SDS011;40582;53.100;6.686;2023-04-30T03:12:10;12.27;;;3.58;;
54683;SDS011;40582;53.100;6.686;2023-04-30T03:14:36;9.45;;;3.30;;
54683;SDS011;40582;53.100;6.686;2023-04-30T03:17:02;10.45;;;3.88;;
54683;SDS011;40582;53.100;6.686;2023-04-30T03:19:27;6.05;;;3.10;;
54683;SDS011;40582;53.100;6.686;2023-04-30T03:21:53;10.25;;;4.00;;
54683;SDS011;40582;53.100;6.686;2023-04-30T03:24:19;8.80;;;3.97;;
54683;SDS011;40582;53.100;6.686;2023-04-30T03:26:45;10.77;;;4.00;;
54683;SDS011;40582;53.100;6.686;2023-04-30T03:29:11;5.82;;;2.92;;
54683;SDS011;40582;53.100;6.686;2023-04-30T03:31:37;10.60;;;3.55;;
54683;SDS011;40582;53.100;6.686;2023-04-30T03:34:02;8.80;;;3.75;;
54683;SDS011;40582;53.100;6.686;2023-04-30T03:36:28;10.32;;;4.10;;
54683;SDS011;40582;53.100;6.686;2023-04-30T03:38:55;7.40;;;3.58;;
54683;SDS011;40582;53.100;6.686;2023-04-30T03:41:21;10.05;;;3.90;;
54683;SDS011;40582;53.100;6.686;2023-04-30T03:43:48;8.60;;;4.15;;
54683;SDS011;40582;53.100;6.686;2023-04-30T03:46:14;6.40;;;3.30;;
54683;SDS011;40582;53.100;6.686;2023-04-30T03:48:39;13.00;;;3.88;;
54683;SDS011;40582;53.100;6.686;2023-04-30T03:51:05;12.02;;;4.22;;
54683;SDS011;40582;53.100;6.686;2023-04-30T03:53:31;11.43;;;3.75;;
54683;SDS011;40582;53.100;6.686;2023-04-30T03:55:57;10.18;;;3.72;;
54683;SDS011;40582;53.100;6.686;2023-04-30T03:58:23;10.40;;;3.75;;
54683;SDS011;40582;53.100;6.686;2023-04-30T04:00:48;11.15;;;3.63;;
54683;SDS011;40582;53.100;6.686;2023-04-30T04:03:14;7.85;;;3.47;;
54683;SDS011;40582;53.100;6.686;2023-04-30T04:05:40;9.60;;;4.20;;
54683;SDS011;40582;53.100;6.686;2023-04-30T04:08:06;8.50;;;3.30;;
54683;SDS011;40582;53.100;6.686;2023-04-30T04:10:33;7.70;;;3.30;;
54683;SDS011;40582;53.100;6.686;2023-04-30T04:12:59;10.68;;;4.00;;
54683;SDS011;40582;53.100;6.686;2023-04-30T04:15:25;11.18;;;4.15;;
54683;SDS011;40582;53.100;6.686;2023-04-30T04:17:50;11.90;;;3.92;;
54683;SDS011;40582;53.100;6.686;2023-04-30T04:20:16;7.93;;;3.70;;
54683;SDS011;40582;53.100;6.686;2023-04-30T04:22:42;11.88;;;4.18;;
54683;SDS011;40582;53.100;6.686;2023-04-30T04:25:08;12.18;;;4.07;;
54683;SDS011;40582;53.100;6.686;2023-04-30T04:27:34;8.80;;;4.22;;
54683;SDS011;40582;53.100;6.686;2023-04-30T04:30:01;11.80;;;4.68;;
54683;SDS011;40582;53.100;6.686;2023-04-30T04:32:27;10.65;;;3.95;;
54683;SDS011;40582;53.100;6.686;2023-04-30T04:34:54;7.70;;;3.40;;
54683;SDS011;40582;53.100;6.686;2023-04-30T04:37:21;9.65;;;3.83;;
54683;SDS011;40582;53.100;6.686;2023-04-30T04:39:46;8.55;;;3.60;;
54683;SDS011;40582;53.100;6.686;2023-04-30T04:42:13;10.38;;;3.78;;
54683;SDS011;40582;53.100;6.686;2023-04-30T04:44:40;8.98;;;3.60;;
54683;SDS011;40582;53.100;6.686;2023-04-30T04:47:06;7.53;;;3.55;;
54683;SDS011;40582;53.100;6.686;2023-04-30T04:49:32;10.50;;;4.10;;
54683;SDS011;40582;53.100;6.686;2023-04-30T04:51:58;6.15;;;3.58;;
54683;SDS011;40582;53.100;6.686;2023-04-30T04:54:23;9.10;;;4.18;;
54683;SDS011;40582;53.100;6.686;2023-04-30T04:56:49;12.95;;;4.38;;
54683;SDS011;40582;53.100;6.686;2023-04-30T04:59:16;6.13;;;3.65;;
54683;SDS011;40582;53.100;6.686;2023-04-30T05:01:42;8.77;;;4.00;;
54683;SDS011;40582;53.100;6.686;2023-04-30T05:04:08;9.23;;;3.78;;
54683;SDS011;40582;53.100;6.686;2023-04-30T05:06:34;9.65;;;4.10;;
54683;SDS011;40582;53.100;6.686;2023-04-30T05:09:00;8.20;;;3.95;;
54683;SDS011;40582;53.100;6.686;2023-04-30T05:11:26;10.50;;;4.50;;
54683;SDS011;40582;53.100;6.686;2023-04-30T05:13:52;9.75;;;3.97;;
54683;SDS011;40582;53.100;6.686;2023-04-30T05:16:18;12.80;;;4.90;;
54683;SDS011;40582;53.100;6.686;2023-04-30T05:18:43;12.23;;;4.57;;
54683;SDS011;40582;53.100;6.686;2023-04-30T05:21:09;14.07;;;5.63;;
54683;SDS011;40582;53.100;6.686;2023-04-30T05:23:35;11.65;;;5.00;;
54683;SDS011;40582;53.100;6.686;2023-04-30T05:26:00;11.23;;;4.95;;
54683;SDS011;40582;53.100;6.686;2023-04-30T05:28:27;11.70;;;5.63;;
54683;SDS011;40582;53.100;6.686;2023-04-30T05:30:52;11.27;;;6.57;;
54683;SDS011;40582;53.100;6.686;2023-04-30T05:33:18;15.48;;;6.88;;
54683;SDS011;40582;53.100;6.686;2023-04-30T05:35:44;18.80;;;6.97;;
54683;SDS011;40582;53.100;6.686;2023-04-30T05:38:10;14.73;;;6.20;;
54683;SDS011;40582;53.100;6.686;2023-04-30T05:40:35;12.68;;;5.88;;
54683;SDS011;40582;53.100;6.686;2023-04-30T05:43:01;18.52;;;6.40;;
54683;SDS011;40582;53.100;6.686;2023-04-30T05:45:27;19.17;;;6.50;;
54683;SDS011;40582;53.100;6.686;2023-04-30T05:47:52;20.35;;;5.45;;
54683;SDS011;40582;53.100;6.686;2023-04-30T05:50:18;17.92;;;6.40;;
54683;SDS011;40582;53.100;6.686;2023-04-30T05:52:44;17.77;;;6.78;;
54683;SDS011;40582;53.100;6.686;2023-04-30T05:55:10;12.13;;;5.82;;
54683;SDS011;40582;53.100;6.686;2023-04-30T05:57:36;16.60;;;5.82;;
54683;SDS011;40582;53.100;6.686;2023-04-30T06:00:02;20.30;;;6.60;;
54683;SDS011;40582;53.100;6.686;2023-04-30T06:02:30;16.08;;;5.60;;
54683;SDS011;40582;53.100;6.686;2023-04-30T06:04:56;14.93;;;4.65;;
54683;SDS011;40582;53.100;6.686;2023-04-30T06:07:22;14.63;;;4.93;;
54683;SDS011;40582;53.100;6.686;2023-04-30T06:09:47;20.85;;;4.75;;
54683;SDS011;40582;53.100;6.686;2023-04-30T06:12:13;17.48;;;5.03;;
54683;SDS011;40582;53.100;6.686;2023-04-30T06:14:39;14.23;;;5.13;;
54683;SDS011;40582;53.100;6.686;2023-04-30T06:17:09;14.07;;;3.95;;
54683;SDS011;40582;53.100;6.686;2023-04-30T06:19:35;15.60;;;4.82;;
54683;SDS011;40582;53.100;6.686;2023-04-30T06:22:02;11.13;;;4.75;;
54683;SDS011;40582;53.100;6.686;2023-04-30T06:24:28;13.68;;;4.65;;
54683;SDS011;40582;53.100;6.686;2023-04-30T06:26:54;21.67;;;5.05;;
54683;SDS011;40582;53.100;6.686;2023-04-30T06:29:20;12.25;;;3.88;;
54683;SDS011;40582;53.100;6.686;2023-04-30T06:31:48;9.65;;;4.10;;
54683;SDS011;40582;53.100;6.686;2023-04-30T06:34:15;19.75;;;5.20;;
54683;SDS011;40582;53.100;6.686;2023-04-30T06:36:41;18.58;;;4.55;;
54683;SDS011;40582;53.100;6.686;2023-04-30T06:39:07;10.63;;;4.50;;
54683;SDS011;40582;53.100;6.686;2023-04-30T06:41:32;20.35;;;4.68;;
54683;SDS011;40582;53.100;6.686;2023-04-30T06:43:58;14.63;;;3.88;;
54683;SDS011;40582;53.100;6.686;2023-04-30T06:46:24;16.05;;;4.30;;
54683;SDS011;40582;53.100;6.686;2023-04-30T06:48:50;18.83;;;4.63;;
54683;SDS011;40582;53.100;6.686;2023-04-30T06:51:15;15.68;;;3.70;;
54683;SDS011;40582;53.100;6.686;2023-04-30T06:53:41;16.33;;;3.45;;
54683;SDS011;40582;53.100;6.686;2023-04-30T06:56:07;11.70;;;3.47;;
54683;SDS011;40582;53.100;6.686;2023-04-30T06:58:32;18.27;;;3.92;;
54683;SDS011;40582;53.100;6.686;2023-04-30T07:00:58;15.27;;;3.50;;
54683;SDS011;40582;53.100;6.686;2023-04-30T07:03:24;17.48;;;4.03;;
54683;SDS011;40582;53.100;6.686;2023-04-30T07:05:51;18.83;;;3.72;;
54683;SDS011;40582;53.100;6.686;2023-04-30T07:08:18;15.30;;;4.00;;
54683;SDS011;40582;53.100;6.686;2023-04-30T07:10:43;11.27;;;4.60;;
54683;SDS011;40582;53.100;6.686;2023-04-30T07:13:09;16.77;;;3.47;;
54683;SDS011;40582;53.100;6.686;2023-04-30T07:15:35;14.48;;;3.55;;
54683;SDS011;40582;53.100;6.686;2023-04-30T07:18:01;17.45;;;3.63;;
54683;SDS011;40582;53.100;6.686;2023-04-30T07:20:28;12.88;;;3.55;;
54683;SDS011;40582;53.100;6.686;2023-04-30T07:22:54;13.95;;;3.22;;
54683;SDS011;40582;53.100;6.686;2023-04-30T07:25:20;25.38;;;4.18;;
54683;SDS011;40582;53.100;6.686;2023-04-30T07:27:47;21.17;;;3.72;;
54683;SDS011;40582;53.100;6.686;2023-04-30T07:30:12;12.25;;;3.15;;
54683;SDS011;40582;53.100;6.686;2023-04-30T07:32:38;19.13;;;3.63;;
54683;SDS011;40582;53.100;6.686;2023-04-30T07:35:05;9.52;;;3.50;;
54683;SDS011;40582;53.100;6.686;2023-04-30T07:37:31;17.48;;;3.55;;
54683;SDS011;40582;53.100;6.686;2023-04-30T07:39:57;12.40;;;3.35;;
54683;SDS011;40582;53.100;6.686;2023-04-30T07:42:22;14.35;;;3.17;;
54683;SDS011;40582;53.100;6.686;2023-04-30T07:44:48;13.20;;;3.08;;
54683;SDS011;40582;53.100;6.686;2023-04-30T07:47:14;18.83;;;3.50;;
54683;SDS011;40582;53.100;6.686;2023-04-30T07:49:40;11.27;;;3.05;;
54683;SDS011;40582;53.100;6.686;2023-04-30T07:52:05;13.80;;;3.55;;
54683;SDS011;40582;53.100;6.686;2023-04-30T07:54:35;11.88;;;2.70;;
54683;SDS011;40582;53.100;6.686;2023-04-30T07:57:03;13.57;;;3.30;;
54683;SDS011;40582;53.100;6.686;2023-04-30T07:59:29;17.85;;;3.10;;
54683;SDS011;40582;53.100;6.686;2023-04-30T08:01:55;17.45;;;2.97;;
54683;SDS011;40582;53.100;6.686;2023-04-30T08:04:21;17.20;;;3.40;;
54683;SDS011;40582;53.100;6.686;2023-04-30T08:06:46;17.83;;;3.50;;
54683;SDS011;40582;53.100;6.686;2023-04-30T08:09:12;15.43;;;3.67;;
54683;SDS011;40582;53.100;6.686;2023-04-30T08:11:39;13.45;;;3.17;;
54683;SDS011;40582;53.100;6.686;2023-04-30T08:14:05;11.48;;;2.80;;
54683;SDS011;40582;53.100;6.686;2023-04-30T08:16:31;16.17;;;3.90;;
54683;SDS011;40582;53.100;6.686;2023-04-30T08:18:56;15.50;;;4.07;;
54683;SDS011;40582;53.100;6.686;2023-04-30T08:21:23;13.40;;;3.30;;
54683;SDS011;40582;53.100;6.686;2023-04-30T08:23:49;16.23;;;3.47;;
54683;SDS011;40582;53.100;6.686;2023-04-30T08:26:15;13.73;;;3.35;;
54683;SDS011;40582;53.100;6.686;2023-04-30T08:28:41;13.60;;;3.40;;
54683;SDS011;40582;53.100;6.686;2023-04-30T08:31:07;12.90;;;3.47;;
54683;SDS011;40582;53.100;6.686;2023-04-30T08:33:32;10.10;;;3.08;;
54683;SDS011;40582;53.100;6.686;2023-04-30T08:35:58;10.57;;;3.63;;
54683;SDS011;40582;53.100;6.686;2023-04-30T08:38:24;12.98;;;3.00;;
54683;SDS011;40582;53.100;6.686;2023-04-30T08:41:00;16.88;;;3.40;;
54683;SDS011;40582;53.100;6.686;2023-04-30T08:43:32;18.73;;;3.80;;
54683;SDS011;40582;53.100;6.686;2023-04-30T08:45:59;15.18;;;3.40;;
54683;SDS011;40582;53.100;6.686;2023-04-30T08:48:25;14.95;;;3.58;;
54683;SDS011;40582;53.100;6.686;2023-04-30T08:50:52;11.02;;;3.25;;
54683;SDS011;40582;53.100;6.686;2023-04-30T08:53:18;11.68;;;3.58;;
54683;SDS011;40582;53.100;6.686;2023-04-30T08:55:45;12.30;;;3.58;;
54683;SDS011;40582;53.100;6.686;2023-04-30T08:58:11;15.82;;;3.42;;
54683;SDS011;40582;53.100;6.686;2023-04-30T09:00:37;12.82;;;3.40;;
54683;SDS011;40582;53.100;6.686;2023-04-30T09:03:04;16.48;;;3.55;;
54683;SDS011;40582;53.100;6.686;2023-04-30T09:05:32;10.63;;;3.15;;
54683;SDS011;40582;53.100;6.686;2023-04-30T09:07:57;12.80;;;3.35;;
54683;SDS011;40582;53.100;6.686;2023-04-30T09:10:23;14.10;;;3.67;;
54683;SDS011;40582;53.100;6.686;2023-04-30T09:13:02;10.18;;;3.00;;
54683;SDS011;40582;53.100;6.686;2023-04-30T09:15:31;12.77;;;3.45;;
54683;SDS011;40582;53.100;6.686;2023-04-30T09:18:07;12.35;;;3.33;;
54683;SDS011;40582;53.100;6.686;2023-04-30T09:20:34;15.18;;;3.72;;
54683;SDS011;40582;53.100;6.686;2023-04-30T09:23:06;16.20;;;3.15;;
54683;SDS011;40582;53.100;6.686;2023-04-30T09:25:41;13.70;;;3.40;;
54683;SDS011;40582;53.100;6.686;2023-04-30T09:28:10;11.93;;;3.20;;
54683;SDS011;40582;53.100;6.686;2023-04-30T09:30:38;19.45;;;3.75;;
54683;SDS011;40582;53.100;6.686;2023-04-30T09:33:04;9.57;;;3.22;;
54683;SDS011;40582;53.100;6.686;2023-04-30T09:35:31;12.18;;;3.28;;
54683;SDS011;40582;53.100;6.686;2023-04-30T09:38:02;9.55;;;3.00;;
54683;SDS011;40582;53.100;6.686;2023-04-30T09:40:31;14.23;;;3.03;;
54683;SDS011;40582;53.100;6.686;2023-04-30T09:43:04;11.32;;;3.13;;
54683;SDS011;40582;53.100;6.686;2023-04-30T09:48:15;9.75;;;3.10;;
54683;SDS011;40582;53.100;6.686;2023-04-30T09:50:48;15.80;;;3.20;;
54683;SDS011;40582;53.100;6.686;2023-04-30T09:53:16;13.88;;;3.80;;
54683;SDS011;40582;53.100;6.686;2023-04-30T09:55:44;14.23;;;3.55;;
54683;SDS011;40582;53.100;6.686;2023-04-30T09:58:11;8.90;;;3.25;;
54683;SDS011;40582;53.100;6.686;2023-04-30T10:00:38;9.35;;;2.78;;
54683;SDS011;40582;53.100;6.686;2023-04-30T10:03:08;12.93;;;3.55;;
54683;SDS011;40582;53.100;6.686;2023-04-30T10:05:35;15.35;;;3.63;;
54683;SDS011;40582;53.100;6.686;2023-04-30T10:08:06;10.23;;;3.08;;
54683;SDS011;40582;53.100;6.686;2023-04-30T10:10:39;12.73;;;3.35;;
54683;SDS011;40582;53.100;6.686;2023-04-30T10:13:08;12.15;;;3.30;;
54683;SDS011;40582;53.100;6.686;2023-04-30T10:15:39;10.07;;;3.42;;
54683;SDS011;40582;53.100;6.686;2023-04-30T10:18:15;15.07;;;3.35;;
54683;SDS011;40582;53.100;6.686;2023-04-30T10:20:43;15.13;;;3.53;;
54683;SDS011;40582;53.100;6.686;2023-04-30T10:23:11;9.23;;;2.75;;
54683;SDS011;40582;53.100;6.686;2023-04-30T10:25:38;13.52;;;3.25;;
54683;SDS011;40582;53.100;6.686;2023-04-30T10:28:05;12.38;;;3.15;;
54683;SDS011;40582;53.100;6.686;2023-04-30T10:30:33;6.10;;;2.85;;
54683;SDS011;40582;53.100;6.686;2023-04-30T10:38:29;11.20;;;3.50;;
54683;SDS011;40582;53.100;6.686;2023-04-30T10:40:57;13.82;;;3.35;;
54683;SDS011;40582;53.100;6.686;2023-04-30T10:43:25;12.73;;;3.17;;
54683;SDS011;40582;53.100;6.686;2023-04-30T10:45:51;18.35;;;4.05;;
54683;SDS011;40582;53.100;6.686;2023-04-30T10:48:17;9.52;;;3.53;;
54683;SDS011;40582;53.100;6.686;2023-04-30T10:50:57;11.60;;;3.33;;
54683;SDS011;40582;53.100;6.686;2023-04-30T10:53:23;12.32;;;3.58;;
54683;SDS011;40582;53.100;6.686;2023-04-30T10:55:58;10.48;;;3.28;;
54683;SDS011;40582;53.100;6.686;2023-04-30T10:58:33;15.50;;;4.30;;
54683;SDS011;40582;53.100;6.686;2023-04-30T11:03:36;17.65;;;3.83;;
54683;SDS011;40582;53.100;6.686;2023-04-30T11:06:11;8.60;;;3.58;;
54683;SDS011;40582;53.100;6.686;2023-04-30T11:08:39;11.60;;;3.65;;
54683;SDS011;40582;53.100;6.686;2023-04-30T11:11:11;9.45;;;3.55;;
54683;SDS011;40582;53.100;6.686;2023-04-30T11:13:45;9.60;;;4.00;;
54683;SDS011;40582;53.100;6.686;2023-04-30T11:16:14;10.70;;;4.22;;
54683;SDS011;40582;53.100;6.686;2023-04-30T11:18:43;10.90;;;3.75;;
54683;SDS011;40582;53.100;6.686;2023-04-30T11:21:10;13.15;;;3.83;;
54683;SDS011;40582;53.100;6.686;2023-04-30T11:23:36;19.60;;;3.38;;
54683;SDS011;40582;53.100;6.686;2023-04-30T11:26:07;10.77;;;3.47;;
54683;SDS011;40582;53.100;6.686;2023-04-30T11:28:32;14.13;;;3.58;;
54683;SDS011;40582;53.100;6.686;2023-04-30T11:31:02;12.18;;;3.40;;
54683;SDS011;40582;53.100;6.686;2023-04-30T11:33:29;8.48;;;3.65;;
54683;SDS011;40582;53.100;6.686;2023-04-30T11:35:56;10.00;;;3.63;;
54683;SDS011;40582;53.100;6.686;2023-04-30T11:38:27;7.85;;;3.22;;
54683;SDS011;40582;53.100;6.686;2023-04-30T11:40:52;7.65;;;3.10;;
54683;SDS011;40582;53.100;6.686;2023-04-30T11:43:25;9.40;;;3.25;;
54683;SDS011;40582;53.100;6.686;2023-04-30T11:48:34;9.70;;;3.20;;
54683;SDS011;40582;53.100;6.686;2023-04-30T11:51:20;15.77;;;3.75;;
54683;SDS011;40582;53.100;6.686;2023-04-30T11:53:51;7.53;;;3.22;;
54683;SDS011;40582;53.100;6.686;2023-04-30T11:56:21;6.68;;;3.22;;
54683;SDS011;40582;53.100;6.686;2023-04-30T11:58:50;7.32;;;3.20;;
54683;SDS011;40582;53.100;6.686;2023-04-30T12:01:17;10.18;;;3.70;;
54683;SDS011;40582;53.100;6.686;2023-04-30T12:03:45;13.57;;;3.88;;
54683;SDS011;40582;53.100;6.686;2023-04-30T12:06:22;9.75;;;3.97;;
54683;SDS011;40582;53.100;6.686;2023-04-30T12:08:52;10.25;;;3.95;;
54683;SDS011;40582;53.100;6.686;2023-04-30T12:11:19;7.85;;;3.50;;
54683;SDS011;40582;53.100;6.686;2023-04-30T12:14:10;4.68;;;3.35;;
54683;SDS011;40582;53.100;6.686;2023-04-30T12:19:06;10.32;;;4.10;;
54683;SDS011;40582;53.100;6.686;2023-04-30T12:21:32;10.77;;;4.05;;
54683;SDS011;40582;53.100;6.686;2023-04-30T12:23:58;10.32;;;3.58;;
54683;SDS011;40582;53.100;6.686;2023-04-30T12:26:32;9.45;;;3.50;;
54683;SDS011;40582;53.100;6.686;2023-04-30T12:29:01;11.25;;;4.05;;
54683;SDS011;40582;53.100;6.686;2023-04-30T12:31:30;10.18;;;3.90;;
54683;SDS011;40582;53.100;6.686;2023-04-30T12:33:57;14.77;;;4.13;;
54683;SDS011;40582;53.100;6.686;2023-04-30T12:36:28;7.35;;;4.05;;
54683;SDS011;40582;53.100;6.686;2023-04-30T12:39:05;7.55;;;4.00;;
54683;SDS011;40582;53.100;6.686;2023-04-30T12:41:35;9.50;;;3.47;;
54683;SDS011;40582;53.100;6.686;2023-04-30T12:44:24;9.70;;;3.25;;
54683;SDS011;40582;53.100;6.686;2023-04-30T12:46:53;7.78;;;3.85;;
54683;SDS011;40582;53.100;6.686;2023-04-30T12:49:32;7.38;;;3.70;;
54683;SDS011;40582;53.100;6.686;2023-04-30T12:51:59;8.63;;;3.90;;
54683;SDS011;40582;53.100;6.686;2023-04-30T12:54:31;8.15;;;3.72;;
54683;SDS011;40582;53.100;6.686;2023-04-30T12:59:28;8.80;;;3.72;;
54683;SDS011;40582;53.100;6.686;2023-04-30T13:02:07;8.82;;;3.75;;
54683;SDS011;40582;53.100;6.686;2023-04-30T13:04:42;11.68;;;3.65;;
54683;SDS011;40582;53.100;6.686;2023-04-30T13:07:08;6.13;;;3.40;;
54683;SDS011;40582;53.100;6.686;2023-04-30T13:09:35;7.80;;;3.42;;
54683;SDS011;40582;53.100;6.686;2023-04-30T13:12:02;10.82;;;3.35;;
54683;SDS011;40582;53.100;6.686;2023-04-30T13:14:29;6.35;;;3.20;;
54683;SDS011;40582;53.100;6.686;2023-04-30T13:16:56;9.23;;;3.00;;
54683;SDS011;40582;53.100;6.686;2023-04-30T13:19:21;10.02;;;3.70;;
54683;SDS011;40582;53.100;6.686;2023-04-30T13:21:47;9.45;;;3.60;;
54683;SDS011;40582;53.100;6.686;2023-04-30T13:24:13;8.45;;;3.47;;
54683;SDS011;40582;53.100;6.686;2023-04-30T13:26:40;6.40;;;3.03;;
54683;SDS011;40582;53.100;6.686;2023-04-30T13:29:05;10.75;;;3.10;;
54683;SDS011;40582;53.100;6.686;2023-04-30T13:31:31;5.13;;;2.60;;
54683;SDS011;40582;53.100;6.686;2023-04-30T13:33:57;4.78;;;2.50;;
54683;SDS011;40582;53.100;6.686;2023-04-30T13:36:23;9.80;;;2.88;;
54683;SDS011;40582;53.100;6.686;2023-04-30T13:38:48;9.25;;;2.70;;
54683;SDS011;40582;53.100;6.686;2023-04-30T13:41:14;5.75;;;2.88;;
54683;SDS011;40582;53.100;6.686;2023-04-30T13:43:40;8.23;;;3.17;;
54683;SDS011;40582;53.100;6.686;2023-04-30T13:46:10;5.03;;;2.95;;
54683;SDS011;40582;53.100;6.686;2023-04-30T13:48:36;6.93;;;3.00;;
54683;SDS011;40582;53.100;6.686;2023-04-30T13:51:01;9.85;;;3.05;;
54683;SDS011;40582;53.100;6.686;2023-04-30T13:53:27;6.00;;;3.20;;
54683;SDS011;40582;53.100;6.686;2023-04-30T13:55:53;7.32;;;3.28;;
54683;SDS011;40582;53.100;6.686;2023-04-30T13:58:19;6.32;;;2.60;;
54683;SDS011;40582;53.100;6.686;2023-04-30T14:00:45;11.05;;;2.95;;
54683;SDS011;40582;53.100;6.686;2023-04-30T14:03:11;7.50;;;2.80;;
54683;SDS011;40582;53.100;6.686;2023-04-30T14:05:37;5.82;;;2.70;;
54683;SDS011;40582;53.100;6.686;2023-04-30T14:08:03;4.35;;;2.60;;
54683;SDS011;40582;53.100;6.686;2023-04-30T14:10:30;5.85;;;2.72;;
54683;SDS011;40582;53.100;6.686;2023-04-30T14:12:56;11.13;;;3.50;;
54683;SDS011;40582;53.100;6.686;2023-04-30T14:15:22;7.85;;;3.05;;
54683;SDS011;40582;53.100;6.686;2023-04-30T14:17:48;9.32;;;3.03;;
54683;SDS011;40582;53.100;6.686;2023-04-30T14:20:14;8.68;;;3.30;;
54683;SDS011;40582;53.100;6.686;2023-04-30T14:22:40;8.90;;;3.67;;
54683;SDS011;40582;53.100;6.686;2023-04-30T14:25:06;7.40;;;3.25;;
54683;SDS011;40582;53.100;6.686;2023-04-30T14:27:33;7.80;;;3.17;;
54683;SDS011;40582;53.100;6.686;2023-04-30T14:29:59;6.50;;;3.60;;
54683;SDS011;40582;53.100;6.686;2023-04-30T14:32:25;9.32;;;3.88;;
54683;SDS011;40582;53.100;6.686;2023-04-30T14:34:51;8.90;;;2.80;;
54683;SDS011;40582;53.100;6.686;2023-04-30T14:37:17;7.47;;;2.60;;
54683;SDS011;40582;53.100;6.686;2023-04-30T14:39:43;6.72;;;2.75;;
54683;SDS011;40582;53.100;6.686;2023-04-30T14:42:08;6.45;;;2.50;;
54683;SDS011;40582;53.100;6.686;2023-04-30T14:44:35;9.23;;;3.08;;
54683;SDS011;40582;53.100;6.686;2023-04-30T14:47:01;5.45;;;2.17;;
54683;SDS011;40582;53.100;6.686;2023-04-30T14:49:28;9.32;;;2.88;;
54683;SDS011;40582;53.100;6.686;2023-04-30T14:51:54;6.00;;;2.70;;
54683;SDS011;40582;53.100;6.686;2023-04-30T14:54:20;6.00;;;2.67;;
54683;SDS011;40582;53.100;6.686;2023-04-30T14:56:46;8.93;;;2.88;;
54683;SDS011;40582;53.100;6.686;2023-04-30T14:59:11;5.25;;;2.40;;
54683;SDS011;40582;53.100;6.686;2023-04-30T15:01:38;7.72;;;2.30;;
54683;SDS011;40582;53.100;6.686;2023-04-30T15:04:03;6.15;;;3.05;;
54683;SDS011;40582;53.100;6.686;2023-04-30T15:06:29;6.22;;;2.70;;
54683;SDS011;40582;53.100;6.686;2023-04-30T15:08:55;6.88;;;2.50;;
54683;SDS011;40582;53.100;6.686;2023-04-30T15:11:21;6.60;;;2.45;;
54683;SDS011;40582;53.100;6.686;2023-04-30T15:13:48;5.70;;;2.70;;
54683;SDS011;40582;53.100;6.686;2023-04-30T15:16:14;5.38;;;2.42;;